sensor_id;sensor_type;location;lat;lon;timestamp;P1;durP1;ratioP1;P2;durP2;ratioP2
72273;SDS011;60208;48.692;8.948;2023-03-01T00:00:10;33.55;;;19.75;;
72273;SDS011;60208;48.692;8.948;2023-03-01T00:02:36;30.40;;;18.75;;
72273;SDS011;60208;48.692;8.948;2023-03-01T00:05:02;29.02;;;17.67;;
72273;SDS011;60208;48.692;8.948;2023-03-01T00:07:28;30.42;;;17.92;;
72273;SDS011;60208;48.692;8.948;2023-03-01T00:09:53;32.42;;;19.30;;
72273;SDS011;60208;48.692;8.948;2023-03-01T00:12:19;44.63;;;23.80;;
72273;SDS011;60208;48.692;8.948;2023-03-01T00:14:45;49.65;;;26.58;;
72273;SDS011;60208;48.692;8.948;2023-03-01T00:17:10;45.42;;;25.13;;
72273;SDS011;60208;48.692;8.948;2023-03-01T00:19:35;34.25;;;20.30;;
72273;SDS011;60208;48.692;8.948;2023-03-01T00:22:01;32.88;;;18.35;;
72273;SDS011;60208;48.692;8.948;2023-03-01T00:24:26;28.30;;;17.20;;
72273;SDS011;60208;48.692;8.948;2023-03-01T00:26:54;28.63;;;17.67;;
72273;SDS011;60208;48.692;8.948;2023-03-01T00:29:21;31.15;;;19.33;;
72273;SDS011;60208;48.692;8.948;2023-03-01T00:31:47;27.63;;;17.38;;
72273;SDS011;60208;48.692;8.948;2023-03-01T00:34:12;27.13;;;16.10;;
72273;SDS011;60208;48.692;8.948;2023-03-01T00:36:38;27.08;;;16.75;;
72273;SDS011;60208;48.692;8.948;2023-03-01T00:39:04;27.83;;;17.02;;
72273;SDS011;60208;48.692;8.948;2023-03-01T00:41:32;28.95;;;17.33;;
72273;SDS011;60208;48.692;8.948;2023-03-01T00:43:59;29.50;;;17.65;;
72273;SDS011;60208;48.692;8.948;2023-03-01T00:46:25;27.90;;;17.88;;
72273;SDS011;60208;48.692;8.948;2023-03-01T00:48:51;28.20;;;17.50;;
72273;SDS011;60208;48.692;8.948;2023-03-01T00:51:18;30.08;;;18.90;;
72273;SDS011;60208;48.692;8.948;2023-03-01T00:53:46;27.33;;;17.80;;
72273;SDS011;60208;48.692;8.948;2023-03-01T00:56:12;29.08;;;17.27;;
72273;SDS011;60208;48.692;8.948;2023-03-01T00:58:39;31.15;;;17.67;;
72273;SDS011;60208;48.692;8.948;2023-03-01T01:01:18;25.85;;;17.10;;
72273;SDS011;60208;48.692;8.948;2023-03-01T01:03:52;25.92;;;16.70;;
72273;SDS011;60208;48.692;8.948;2023-03-01T01:06:32;27.40;;;16.88;;
72273;SDS011;60208;48.692;8.948;2023-03-01T01:08:59;27.33;;;16.70;;
72273;SDS011;60208;48.692;8.948;2023-03-01T01:11:26;27.92;;;16.67;;
72273;SDS011;60208;48.692;8.948;2023-03-01T01:13:53;24.75;;;16.35;;
72273;SDS011;60208;48.692;8.948;2023-03-01T01:16:18;30.13;;;16.85;;
72273;SDS011;60208;48.692;8.948;2023-03-01T01:18:44;25.10;;;16.60;;
72273;SDS011;60208;48.692;8.948;2023-03-01T01:21:11;25.05;;;16.42;;
72273;SDS011;60208;48.692;8.948;2023-03-01T01:23:39;28.15;;;17.17;;
72273;SDS011;60208;48.692;8.948;2023-03-01T01:26:09;28.40;;;17.25;;
72273;SDS011;60208;48.692;8.948;2023-03-01T01:28:37;27.77;;;18.05;;
72273;SDS011;60208;48.692;8.948;2023-03-01T01:31:02;29.30;;;17.52;;
72273;SDS011;60208;48.692;8.948;2023-03-01T01:33:28;27.25;;;16.30;;
72273;SDS011;60208;48.692;8.948;2023-03-01T01:35:54;26.80;;;17.48;;
72273;SDS011;60208;48.692;8.948;2023-03-01T01:38:19;27.73;;;17.23;;
72273;SDS011;60208;48.692;8.948;2023-03-01T01:40:45;39.72;;;22.10;;
72273;SDS011;60208;48.692;8.948;2023-03-01T01:43:21;32.17;;;18.23;;
72273;SDS011;60208;48.692;8.948;2023-03-01T01:45:49;29.50;;;17.48;;
72273;SDS011;60208;48.692;8.948;2023-03-01T01:48:17;25.90;;;16.40;;
72273;SDS011;60208;48.692;8.948;2023-03-01T01:50:44;27.15;;;17.40;;
72273;SDS011;60208;48.692;8.948;2023-03-01T01:53:13;30.70;;;18.35;;
72273;SDS011;60208;48.692;8.948;2023-03-01T01:55:42;28.90;;;18.05;;
72273;SDS011;60208;48.692;8.948;2023-03-01T01:58:09;28.25;;;17.33;;
72273;SDS011;60208;48.692;8.948;2023-03-01T02:00:36;24.60;;;16.50;;
72273;SDS011;60208;48.692;8.948;2023-03-01T02:03:03;26.25;;;16.65;;
72273;SDS011;60208;48.692;8.948;2023-03-01T02:08:00;27.13;;;16.35;;
72273;SDS011;60208;48.692;8.948;2023-03-01T02:10:25;27.75;;;17.33;;
72273;SDS011;60208;48.692;8.948;2023-03-01T02:12:51;26.90;;;16.73;;
72273;SDS011;60208;48.692;8.948;2023-03-01T02:15:17;24.77;;;16.00;;
72273;SDS011;60208;48.692;8.948;2023-03-01T02:17:42;25.67;;;15.57;;
72273;SDS011;60208;48.692;8.948;2023-03-01T02:20:44;24.58;;;16.05;;
72273;SDS011;60208;48.692;8.948;2023-03-01T02:23:03;24.65;;;15.98;;
72273;SDS011;60208;48.692;8.948;2023-03-01T02:25:36;25.05;;;16.17;;
72273;SDS011;60208;48.692;8.948;2023-03-01T02:30:43;25.98;;;16.13;;
72273;SDS011;60208;48.692;8.948;2023-03-01T02:33:29;26.30;;;16.25;;
72273;SDS011;60208;48.692;8.948;2023-03-01T02:35:57;25.08;;;15.43;;
72273;SDS011;60208;48.692;8.948;2023-03-01T02:38:24;25.98;;;16.15;;
72273;SDS011;60208;48.692;8.948;2023-03-01T02:40:49;25.55;;;15.40;;
72273;SDS011;60208;48.692;8.948;2023-03-01T02:43:15;27.08;;;16.20;;
72273;SDS011;60208;48.692;8.948;2023-03-01T02:45:51;26.13;;;16.75;;
72273;SDS011;60208;48.692;8.948;2023-03-01T02:48:18;24.75;;;16.38;;
72273;SDS011;60208;48.692;8.948;2023-03-01T02:53:55;26.02;;;16.33;;
72273;SDS011;60208;48.692;8.948;2023-03-01T02:56:19;28.60;;;15.57;;
72273;SDS011;60208;48.692;8.948;2023-03-01T02:58:45;23.00;;;15.60;;
72273;SDS011;60208;48.692;8.948;2023-03-01T03:01:13;25.65;;;15.90;;
72273;SDS011;60208;48.692;8.948;2023-03-01T03:03:40;25.35;;;16.05;;
72273;SDS011;60208;48.692;8.948;2023-03-01T03:06:05;24.45;;;16.10;;
72273;SDS011;60208;48.692;8.948;2023-03-01T03:08:31;27.10;;;16.02;;
72273;SDS011;60208;48.692;8.948;2023-03-01T03:10:56;24.25;;;15.85;;
72273;SDS011;60208;48.692;8.948;2023-03-01T03:13:21;24.98;;;16.55;;
72273;SDS011;60208;48.692;8.948;2023-03-01T03:15:47;26.35;;;16.48;;
72273;SDS011;60208;48.692;8.948;2023-03-01T03:18:13;27.67;;;16.73;;
72273;SDS011;60208;48.692;8.948;2023-03-01T03:20:41;23.38;;;16.05;;
72273;SDS011;60208;48.692;8.948;2023-03-01T03:23:07;29.15;;;16.20;;
72273;SDS011;60208;48.692;8.948;2023-03-01T03:25:33;24.00;;;16.17;;
72273;SDS011;60208;48.692;8.948;2023-03-01T03:28:02;25.23;;;16.00;;
72273;SDS011;60208;48.692;8.948;2023-03-01T03:30:35;23.65;;;15.45;;
72273;SDS011;60208;48.692;8.948;2023-03-01T03:33:01;23.08;;;15.73;;
72273;SDS011;60208;48.692;8.948;2023-03-01T03:35:28;26.95;;;17.25;;
72273;SDS011;60208;48.692;8.948;2023-03-01T03:37:56;25.05;;;16.48;;
72273;SDS011;60208;48.692;8.948;2023-03-01T03:40:33;26.88;;;16.95;;
72273;SDS011;60208;48.692;8.948;2023-03-01T03:42:59;28.23;;;16.95;;
72273;SDS011;60208;48.692;8.948;2023-03-01T03:45:25;22.92;;;15.98;;
72273;SDS011;60208;48.692;8.948;2023-03-01T03:47:50;24.35;;;15.88;;
72273;SDS011;60208;48.692;8.948;2023-03-01T03:50:16;23.20;;;16.08;;
72273;SDS011;60208;48.692;8.948;2023-03-01T03:52:42;27.10;;;16.42;;
72273;SDS011;60208;48.692;8.948;2023-03-01T03:55:09;27.95;;;16.13;;
72273;SDS011;60208;48.692;8.948;2023-03-01T03:57:39;24.85;;;16.80;;
72273;SDS011;60208;48.692;8.948;2023-03-01T04:00:05;23.88;;;15.82;;
72273;SDS011;60208;48.692;8.948;2023-03-01T04:02:41;24.98;;;16.60;;
72273;SDS011;60208;48.692;8.948;2023-03-01T04:05:07;24.88;;;16.20;;
72273;SDS011;60208;48.692;8.948;2023-03-01T04:07:37;28.63;;;16.90;;
72273;SDS011;60208;48.692;8.948;2023-03-01T04:10:04;25.65;;;16.73;;
72273;SDS011;60208;48.692;8.948;2023-03-01T04:12:30;25.52;;;16.50;;
72273;SDS011;60208;48.692;8.948;2023-03-01T04:14:55;24.02;;;16.48;;
72273;SDS011;60208;48.692;8.948;2023-03-01T04:17:20;26.30;;;16.40;;
72273;SDS011;60208;48.692;8.948;2023-03-01T04:19:46;25.67;;;16.90;;
72273;SDS011;60208;48.692;8.948;2023-03-01T04:22:14;26.52;;;17.17;;
72273;SDS011;60208;48.692;8.948;2023-03-01T04:24:46;28.77;;;17.48;;
72273;SDS011;60208;48.692;8.948;2023-03-01T04:27:11;24.92;;;16.27;;
72273;SDS011;60208;48.692;8.948;2023-03-01T04:29:36;26.23;;;15.80;;
72273;SDS011;60208;48.692;8.948;2023-03-01T04:32:02;27.73;;;17.63;;
72273;SDS011;60208;48.692;8.948;2023-03-01T04:34:28;25.35;;;17.45;;
72273;SDS011;60208;48.692;8.948;2023-03-01T04:36:53;26.85;;;16.45;;
72273;SDS011;60208;48.692;8.948;2023-03-01T04:39:19;28.23;;;17.05;;
72273;SDS011;60208;48.692;8.948;2023-03-01T04:41:44;25.95;;;17.25;;
72273;SDS011;60208;48.692;8.948;2023-03-01T04:44:09;24.38;;;16.55;;
72273;SDS011;60208;48.692;8.948;2023-03-01T04:46:35;25.02;;;16.73;;
72273;SDS011;60208;48.692;8.948;2023-03-01T04:49:01;25.10;;;16.60;;
72273;SDS011;60208;48.692;8.948;2023-03-01T04:51:27;27.15;;;17.40;;
72273;SDS011;60208;48.692;8.948;2023-03-01T04:53:53;27.98;;;17.05;;
72273;SDS011;60208;48.692;8.948;2023-03-01T04:56:18;27.23;;;17.05;;
72273;SDS011;60208;48.692;8.948;2023-03-01T04:58:44;24.67;;;17.23;;
72273;SDS011;60208;48.692;8.948;2023-03-01T05:01:10;28.15;;;17.33;;
72273;SDS011;60208;48.692;8.948;2023-03-01T05:03:40;26.67;;;16.88;;
72273;SDS011;60208;48.692;8.948;2023-03-01T05:06:09;29.02;;;19.20;;
72273;SDS011;60208;48.692;8.948;2023-03-01T05:08:36;30.20;;;17.83;;
72273;SDS011;60208;48.692;8.948;2023-03-01T05:11:02;25.27;;;17.00;;
72273;SDS011;60208;48.692;8.948;2023-03-01T05:13:28;28.33;;;18.00;;
72273;SDS011;60208;48.692;8.948;2023-03-01T05:15:55;30.13;;;18.70;;
72273;SDS011;60208;48.692;8.948;2023-03-01T05:18:24;30.02;;;18.70;;
72273;SDS011;60208;48.692;8.948;2023-03-01T05:20:53;26.00;;;17.80;;
72273;SDS011;60208;48.692;8.948;2023-03-01T05:23:23;27.65;;;17.48;;
72273;SDS011;60208;48.692;8.948;2023-03-01T05:25:49;26.27;;;17.50;;
72273;SDS011;60208;48.692;8.948;2023-03-01T05:28:17;23.75;;;16.63;;
72273;SDS011;60208;48.692;8.948;2023-03-01T05:30:44;24.83;;;17.30;;
72273;SDS011;60208;48.692;8.948;2023-03-01T05:33:10;28.27;;;18.08;;
72273;SDS011;60208;48.692;8.948;2023-03-01T05:35:38;28.67;;;17.80;;
72273;SDS011;60208;48.692;8.948;2023-03-01T05:38:06;27.75;;;17.40;;
72273;SDS011;60208;48.692;8.948;2023-03-01T05:40:32;26.33;;;17.60;;
72273;SDS011;60208;48.692;8.948;2023-03-01T05:42:58;29.20;;;18.17;;
72273;SDS011;60208;48.692;8.948;2023-03-01T05:45:24;28.50;;;17.98;;
72273;SDS011;60208;48.692;8.948;2023-03-01T05:47:50;27.58;;;18.52;;
72273;SDS011;60208;48.692;8.948;2023-03-01T05:50:17;25.80;;;17.48;;
72273;SDS011;60208;48.692;8.948;2023-03-01T05:52:48;27.60;;;17.70;;
72273;SDS011;60208;48.692;8.948;2023-03-01T05:55:15;30.15;;;18.88;;
72273;SDS011;60208;48.692;8.948;2023-03-01T05:57:41;27.42;;;17.80;;
72273;SDS011;60208;48.692;8.948;2023-03-01T06:00:07;27.73;;;18.05;;
72273;SDS011;60208;48.692;8.948;2023-03-01T06:02:34;27.20;;;17.90;;
72273;SDS011;60208;48.692;8.948;2023-03-01T06:04:59;26.08;;;18.45;;
72273;SDS011;60208;48.692;8.948;2023-03-01T06:07:24;30.27;;;18.75;;
72273;SDS011;60208;48.692;8.948;2023-03-01T06:09:50;25.20;;;17.48;;
72273;SDS011;60208;48.692;8.948;2023-03-01T06:12:15;29.38;;;18.55;;
72273;SDS011;60208;48.692;8.948;2023-03-01T06:14:40;26.48;;;18.02;;
72273;SDS011;60208;48.692;8.948;2023-03-01T06:17:06;28.25;;;18.08;;
72273;SDS011;60208;48.692;8.948;2023-03-01T06:19:31;25.60;;;18.25;;
72273;SDS011;60208;48.692;8.948;2023-03-01T06:21:57;27.77;;;19.08;;
72273;SDS011;60208;48.692;8.948;2023-03-01T06:24:22;29.52;;;18.60;;
72273;SDS011;60208;48.692;8.948;2023-03-01T06:26:48;27.58;;;18.80;;
72273;SDS011;60208;48.692;8.948;2023-03-01T06:29:13;26.73;;;18.73;;
72273;SDS011;60208;48.692;8.948;2023-03-01T06:31:39;26.50;;;18.67;;
72273;SDS011;60208;48.692;8.948;2023-03-01T06:34:04;29.50;;;18.50;;
72273;SDS011;60208;48.692;8.948;2023-03-01T06:36:30;30.45;;;18.05;;
72273;SDS011;60208;48.692;8.948;2023-03-01T06:38:55;29.95;;;18.48;;
72273;SDS011;60208;48.692;8.948;2023-03-01T06:41:20;32.67;;;18.83;;
72273;SDS011;60208;48.692;8.948;2023-03-01T06:43:46;31.65;;;18.42;;
72273;SDS011;60208;48.692;8.948;2023-03-01T06:46:11;27.20;;;18.58;;
72273;SDS011;60208;48.692;8.948;2023-03-01T06:48:37;27.65;;;18.20;;
72273;SDS011;60208;48.692;8.948;2023-03-01T06:51:03;28.50;;;18.23;;
72273;SDS011;60208;48.692;8.948;2023-03-01T06:53:29;29.60;;;18.63;;
72273;SDS011;60208;48.692;8.948;2023-03-01T06:55:57;27.00;;;18.75;;
72273;SDS011;60208;48.692;8.948;2023-03-01T06:58:24;28.05;;;17.98;;
72273;SDS011;60208;48.692;8.948;2023-03-01T07:00:50;32.63;;;19.77;;
72273;SDS011;60208;48.692;8.948;2023-03-01T07:03:15;29.83;;;18.73;;
72273;SDS011;60208;48.692;8.948;2023-03-01T07:05:41;31.58;;;19.33;;
72273;SDS011;60208;48.692;8.948;2023-03-01T07:08:06;28.55;;;18.63;;
72273;SDS011;60208;48.692;8.948;2023-03-01T07:10:32;28.73;;;18.45;;
72273;SDS011;60208;48.692;8.948;2023-03-01T07:12:57;28.80;;;17.92;;
72273;SDS011;60208;48.692;8.948;2023-03-01T07:15:23;27.50;;;18.17;;
72273;SDS011;60208;48.692;8.948;2023-03-01T07:17:49;30.98;;;18.42;;
72273;SDS011;60208;48.692;8.948;2023-03-01T07:20:15;27.42;;;18.52;;
72273;SDS011;60208;48.692;8.948;2023-03-01T07:22:43;28.55;;;18.92;;
72273;SDS011;60208;48.692;8.948;2023-03-01T07:25:09;29.55;;;17.92;;
72273;SDS011;60208;48.692;8.948;2023-03-01T07:27:35;27.33;;;18.27;;
72273;SDS011;60208;48.692;8.948;2023-03-01T07:30:01;30.08;;;19.05;;
72273;SDS011;60208;48.692;8.948;2023-03-01T07:32:26;26.77;;;18.40;;
72273;SDS011;60208;48.692;8.948;2023-03-01T07:34:51;28.27;;;18.42;;
72273;SDS011;60208;48.692;8.948;2023-03-01T07:37:17;26.10;;;18.05;;
72273;SDS011;60208;48.692;8.948;2023-03-01T07:39:42;34.35;;;18.98;;
72273;SDS011;60208;48.692;8.948;2023-03-01T07:42:09;27.77;;;19.10;;
72273;SDS011;60208;48.692;8.948;2023-03-01T07:44:34;30.83;;;20.20;;
72273;SDS011;60208;48.692;8.948;2023-03-01T07:47:00;29.48;;;18.23;;
72273;SDS011;60208;48.692;8.948;2023-03-01T07:49:25;26.88;;;18.02;;
72273;SDS011;60208;48.692;8.948;2023-03-01T07:51:53;31.60;;;18.95;;
72273;SDS011;60208;48.692;8.948;2023-03-01T07:54:19;30.80;;;18.67;;
72273;SDS011;60208;48.692;8.948;2023-03-01T07:56:45;31.05;;;18.80;;
72273;SDS011;60208;48.692;8.948;2023-03-01T07:59:10;33.78;;;18.65;;
72273;SDS011;60208;48.692;8.948;2023-03-01T08:01:35;26.90;;;18.58;;
72273;SDS011;60208;48.692;8.948;2023-03-01T08:04:01;29.42;;;19.40;;
72273;SDS011;60208;48.692;8.948;2023-03-01T08:06:26;28.10;;;18.83;;
72273;SDS011;60208;48.692;8.948;2023-03-01T08:08:52;29.75;;;19.77;;
72273;SDS011;60208;48.692;8.948;2023-03-01T08:11:17;32.83;;;19.02;;
72273;SDS011;60208;48.692;8.948;2023-03-01T08:13:43;29.00;;;18.35;;
72273;SDS011;60208;48.692;8.948;2023-03-01T08:16:12;28.77;;;18.77;;
72273;SDS011;60208;48.692;8.948;2023-03-01T08:18:39;35.17;;;19.10;;
72273;SDS011;60208;48.692;8.948;2023-03-01T08:21:05;28.30;;;18.17;;
72273;SDS011;60208;48.692;8.948;2023-03-01T08:23:32;28.02;;;19.15;;
72273;SDS011;60208;48.692;8.948;2023-03-01T08:26:05;30.40;;;19.40;;
72273;SDS011;60208;48.692;8.948;2023-03-01T08:28:34;29.42;;;19.15;;
72273;SDS011;60208;48.692;8.948;2023-03-01T08:31:00;35.70;;;19.17;;
72273;SDS011;60208;48.692;8.948;2023-03-01T08:33:25;34.85;;;18.63;;
72273;SDS011;60208;48.692;8.948;2023-03-01T08:35:51;29.30;;;19.48;;
72273;SDS011;60208;48.692;8.948;2023-03-01T08:38:16;30.98;;;19.17;;
72273;SDS011;60208;48.692;8.948;2023-03-01T08:40:41;29.25;;;18.70;;
72273;SDS011;60208;48.692;8.948;2023-03-01T08:43:07;28.25;;;19.40;;
72273;SDS011;60208;48.692;8.948;2023-03-01T08:45:32;28.58;;;18.35;;
72273;SDS011;60208;48.692;8.948;2023-03-01T08:47:57;32.22;;;19.08;;
72273;SDS011;60208;48.692;8.948;2023-03-01T08:50:23;36.75;;;18.90;;
72273;SDS011;60208;48.692;8.948;2023-03-01T08:52:49;28.13;;;18.85;;
72273;SDS011;60208;48.692;8.948;2023-03-01T08:55:15;31.23;;;19.02;;
72273;SDS011;60208;48.692;8.948;2023-03-01T08:57:42;30.20;;;19.85;;
72273;SDS011;60208;48.692;8.948;2023-03-01T09:00:08;26.85;;;19.08;;
72273;SDS011;60208;48.692;8.948;2023-03-01T09:02:34;26.83;;;19.15;;
72273;SDS011;60208;48.692;8.948;2023-03-01T09:04:59;32.83;;;19.85;;
72273;SDS011;60208;48.692;8.948;2023-03-01T09:07:25;28.58;;;18.80;;
72273;SDS011;60208;48.692;8.948;2023-03-01T09:09:53;26.05;;;17.95;;
72273;SDS011;60208;48.692;8.948;2023-03-01T09:12:19;25.05;;;18.23;;
72273;SDS011;60208;48.692;8.948;2023-03-01T09:14:44;27.52;;;19.13;;
72273;SDS011;60208;48.692;8.948;2023-03-01T09:17:10;30.92;;;19.70;;
72273;SDS011;60208;48.692;8.948;2023-03-01T09:19:35;30.58;;;19.25;;
72273;SDS011;60208;48.692;8.948;2023-03-01T09:22:02;26.00;;;19.15;;
72273;SDS011;60208;48.692;8.948;2023-03-01T09:24:31;25.65;;;19.00;;
72273;SDS011;60208;48.692;8.948;2023-03-01T09:27:03;24.92;;;18.55;;
72273;SDS011;60208;48.692;8.948;2023-03-01T09:29:47;27.35;;;18.88;;
72273;SDS011;60208;48.692;8.948;2023-03-01T09:32:33;28.27;;;19.27;;
72273;SDS011;60208;48.692;8.948;2023-03-01T09:35:04;24.40;;;18.30;;
72273;SDS011;60208;48.692;8.948;2023-03-01T09:37:34;26.40;;;19.15;;
72273;SDS011;60208;48.692;8.948;2023-03-01T09:40:05;24.17;;;18.52;;
72273;SDS011;60208;48.692;8.948;2023-03-01T09:42:35;27.42;;;19.67;;
72273;SDS011;60208;48.692;8.948;2023-03-01T09:45:05;26.50;;;18.90;;
72273;SDS011;60208;48.692;8.948;2023-03-01T09:47:54;27.52;;;18.58;;
72273;SDS011;60208;48.692;8.948;2023-03-01T09:50:21;24.38;;;18.95;;
72273;SDS011;60208;48.692;8.948;2023-03-01T10:04:54;20.92;;;16.88;;
72273;SDS011;60208;48.692;8.948;2023-03-01T10:10:43;27.75;;;19.08;;
72273;SDS011;60208;48.692;8.948;2023-03-01T10:13:20;23.98;;;18.67;;
72273;SDS011;60208;48.692;8.948;2023-03-01T10:18:54;24.30;;;18.33;;
72273;SDS011;60208;48.692;8.948;2023-03-01T10:24:24;21.25;;;17.27;;
72273;SDS011;60208;48.692;8.948;2023-03-01T10:32:25;21.60;;;17.52;;
72273;SDS011;60208;48.692;8.948;2023-03-01T10:34:51;23.02;;;17.83;;
72273;SDS011;60208;48.692;8.948;2023-03-01T10:37:22;22.85;;;18.20;;
72273;SDS011;60208;48.692;8.948;2023-03-01T10:42:51;20.80;;;17.38;;
72273;SDS011;60208;48.692;8.948;2023-03-01T10:45:38;21.52;;;17.65;;
72273;SDS011;60208;48.692;8.948;2023-03-01T10:53:42;22.33;;;17.15;;
72273;SDS011;60208;48.692;8.948;2023-03-01T10:56:09;22.63;;;17.75;;
72273;SDS011;60208;48.692;8.948;2023-03-01T11:01:35;18.45;;;16.13;;
72273;SDS011;60208;48.692;8.948;2023-03-01T11:06:42;22.20;;;17.00;;
72273;SDS011;60208;48.692;8.948;2023-03-01T11:09:15;23.48;;;17.88;;
72273;SDS011;60208;48.692;8.948;2023-03-01T11:11:45;18.80;;;16.23;;
72273;SDS011;60208;48.692;8.948;2023-03-01T11:17:11;18.33;;;16.42;;
72273;SDS011;60208;48.692;8.948;2023-03-01T11:22:48;18.50;;;15.27;;
72273;SDS011;60208;48.692;8.948;2023-03-01T11:25:19;18.60;;;15.38;;
72273;SDS011;60208;48.692;8.948;2023-03-01T11:27:48;16.55;;;14.68;;
72273;SDS011;60208;48.692;8.948;2023-03-01T11:35:55;17.20;;;15.40;;
72273;SDS011;60208;48.692;8.948;2023-03-01T11:38:52;17.27;;;15.43;;
72273;SDS011;60208;48.692;8.948;2023-03-01T11:41:33;17.73;;;15.93;;
72273;SDS011;60208;48.692;8.948;2023-03-01T11:44:14;17.80;;;14.55;;
72273;SDS011;60208;48.692;8.948;2023-03-01T11:55:29;16.58;;;14.77;;
72273;SDS011;60208;48.692;8.948;2023-03-01T11:58:24;16.15;;;14.07;;
72273;SDS011;60208;48.692;8.948;2023-03-01T12:07:02;15.65;;;14.13;;
72273;SDS011;60208;48.692;8.948;2023-03-01T12:31:11;15.50;;;13.98;;
72273;SDS011;60208;48.692;8.948;2023-03-01T12:50:22;15.30;;;13.57;;
72273;SDS011;60208;48.692;8.948;2023-03-01T12:52:56;15.13;;;13.52;;
72273;SDS011;60208;48.692;8.948;2023-03-01T12:58:13;14.65;;;13.05;;
72273;SDS011;60208;48.692;8.948;2023-03-01T13:00:52;17.88;;;13.10;;
72273;SDS011;60208;48.692;8.948;2023-03-01T13:03:48;15.57;;;13.32;;
72273;SDS011;60208;48.692;8.948;2023-03-01T13:17:58;14.55;;;12.98;;
72273;SDS011;60208;48.692;8.948;2023-03-01T13:20:28;13.57;;;12.18;;
72273;SDS011;60208;48.692;8.948;2023-03-01T13:23:04;13.93;;;12.52;;
72273;SDS011;60208;48.692;8.948;2023-03-01T13:31:09;13.63;;;11.80;;
72273;SDS011;60208;48.692;8.948;2023-03-01T13:39:01;15.52;;;12.10;;
72273;SDS011;60208;48.692;8.948;2023-03-01T13:50:15;15.20;;;13.50;;
72273;SDS011;60208;48.692;8.948;2023-03-01T13:57:42;14.50;;;12.93;;
72273;SDS011;60208;48.692;8.948;2023-03-01T14:03:00;20.45;;;13.52;;
72273;SDS011;60208;48.692;8.948;2023-03-01T14:05:32;15.55;;;13.85;;
72273;SDS011;60208;48.692;8.948;2023-03-01T14:08:04;15.70;;;13.65;;
72273;SDS011;60208;48.692;8.948;2023-03-01T14:10:45;14.57;;;13.10;;
72273;SDS011;60208;48.692;8.948;2023-03-01T14:16:12;14.93;;;13.15;;
72273;SDS011;60208;48.692;8.948;2023-03-01T14:19:18;17.48;;;14.82;;
72273;SDS011;60208;48.692;8.948;2023-03-01T14:21:59;16.75;;;14.45;;
72273;SDS011;60208;48.692;8.948;2023-03-01T14:24:29;20.90;;;15.63;;
72273;SDS011;60208;48.692;8.948;2023-03-01T14:27:01;17.30;;;15.40;;
72273;SDS011;60208;48.692;8.948;2023-03-01T14:29:35;20.13;;;15.60;;
72273;SDS011;60208;48.692;8.948;2023-03-01T14:32:09;20.52;;;14.75;;
72273;SDS011;60208;48.692;8.948;2023-03-01T14:34:38;18.10;;;15.38;;
72273;SDS011;60208;48.692;8.948;2023-03-01T14:40:00;15.68;;;13.80;;
72273;SDS011;60208;48.692;8.948;2023-03-01T14:42:28;17.20;;;14.95;;
72273;SDS011;60208;48.692;8.948;2023-03-01T14:44:56;18.25;;;15.93;;
72273;SDS011;60208;48.692;8.948;2023-03-01T14:47:26;17.10;;;14.80;;
72273;SDS011;60208;48.692;8.948;2023-03-01T14:49:58;16.50;;;14.27;;
72273;SDS011;60208;48.692;8.948;2023-03-01T14:52:34;16.23;;;14.50;;
72273;SDS011;60208;48.692;8.948;2023-03-01T14:55:02;18.08;;;15.07;;
72273;SDS011;60208;48.692;8.948;2023-03-01T14:57:33;17.98;;;15.02;;
72273;SDS011;60208;48.692;8.948;2023-03-01T15:00:02;17.60;;;15.05;;
72273;SDS011;60208;48.692;8.948;2023-03-01T15:02:37;19.70;;;15.48;;
72273;SDS011;60208;48.692;8.948;2023-03-01T15:05:08;18.95;;;15.52;;
72273;SDS011;60208;48.692;8.948;2023-03-01T15:07:38;20.27;;;15.82;;
72273;SDS011;60208;48.692;8.948;2023-03-01T15:10:26;18.40;;;15.50;;
72273;SDS011;60208;48.692;8.948;2023-03-01T15:12:52;17.38;;;15.32;;
72273;SDS011;60208;48.692;8.948;2023-03-01T15:18:22;21.25;;;16.85;;
72273;SDS011;60208;48.692;8.948;2023-03-01T15:21:06;20.27;;;16.45;;
72273;SDS011;60208;48.692;8.948;2023-03-01T15:23:36;18.85;;;16.40;;
72273;SDS011;60208;48.692;8.948;2023-03-01T15:26:06;18.55;;;15.70;;
72273;SDS011;60208;48.692;8.948;2023-03-01T15:28:34;18.58;;;16.30;;
72273;SDS011;60208;48.692;8.948;2023-03-01T15:36:59;19.95;;;16.60;;
72273;SDS011;60208;48.692;8.948;2023-03-01T15:39:36;20.90;;;17.55;;
72273;SDS011;60208;48.692;8.948;2023-03-01T15:42:03;20.23;;;17.25;;
72273;SDS011;60208;48.692;8.948;2023-03-01T15:45:06;20.23;;;17.23;;
72273;SDS011;60208;48.692;8.948;2023-03-01T15:47:36;22.40;;;17.27;;
72273;SDS011;60208;48.692;8.948;2023-03-01T15:50:04;23.30;;;18.08;;
72273;SDS011;60208;48.692;8.948;2023-03-01T15:52:40;21.45;;;16.67;;
72273;SDS011;60208;48.692;8.948;2023-03-01T15:57:46;22.23;;;16.77;;
72273;SDS011;60208;48.692;8.948;2023-03-01T16:00:13;20.15;;;17.27;;
72273;SDS011;60208;48.692;8.948;2023-03-01T16:02:40;22.20;;;17.40;;
72273;SDS011;60208;48.692;8.948;2023-03-01T16:05:10;27.40;;;17.52;;
72273;SDS011;60208;48.692;8.948;2023-03-01T16:07:43;23.50;;;17.42;;
72273;SDS011;60208;48.692;8.948;2023-03-01T16:10:08;22.45;;;18.00;;
72273;SDS011;60208;48.692;8.948;2023-03-01T16:12:37;21.85;;;17.20;;
72273;SDS011;60208;48.692;8.948;2023-03-01T16:15:04;23.50;;;17.55;;
72273;SDS011;60208;48.692;8.948;2023-03-01T16:17:32;21.48;;;17.63;;
72273;SDS011;60208;48.692;8.948;2023-03-01T16:19:58;23.55;;;18.15;;
72273;SDS011;60208;48.692;8.948;2023-03-01T16:22:23;25.08;;;17.77;;
72273;SDS011;60208;48.692;8.948;2023-03-01T16:24:50;26.77;;;18.00;;
72273;SDS011;60208;48.692;8.948;2023-03-01T16:27:15;23.70;;;17.30;;
72273;SDS011;60208;48.692;8.948;2023-03-01T16:29:46;22.75;;;18.30;;
72273;SDS011;60208;48.692;8.948;2023-03-01T16:32:12;25.42;;;18.33;;
72273;SDS011;60208;48.692;8.948;2023-03-01T16:34:37;24.15;;;18.00;;
72273;SDS011;60208;48.692;8.948;2023-03-01T16:37:02;24.58;;;18.60;;
72273;SDS011;60208;48.692;8.948;2023-03-01T16:39:28;22.30;;;17.25;;
72273;SDS011;60208;48.692;8.948;2023-03-01T16:41:55;25.48;;;18.58;;
72273;SDS011;60208;48.692;8.948;2023-03-01T16:44:26;26.98;;;18.30;;
72273;SDS011;60208;48.692;8.948;2023-03-01T16:46:54;24.30;;;16.40;;
72273;SDS011;60208;48.692;8.948;2023-03-01T16:49:19;22.55;;;17.77;;
72273;SDS011;60208;48.692;8.948;2023-03-01T16:51:44;27.20;;;18.38;;
72273;SDS011;60208;48.692;8.948;2023-03-01T16:54:10;25.02;;;18.80;;
72273;SDS011;60208;48.692;8.948;2023-03-01T16:56:35;26.70;;;19.02;;
72273;SDS011;60208;48.692;8.948;2023-03-01T16:59:03;26.63;;;18.13;;
72273;SDS011;60208;48.692;8.948;2023-03-01T17:01:29;24.52;;;17.63;;
72273;SDS011;60208;48.692;8.948;2023-03-01T17:04:02;23.23;;;17.73;;
72273;SDS011;60208;48.692;8.948;2023-03-01T17:06:30;25.50;;;18.60;;
72273;SDS011;60208;48.692;8.948;2023-03-01T17:08:57;26.58;;;17.67;;
72273;SDS011;60208;48.692;8.948;2023-03-01T17:11:24;24.52;;;17.60;;
72273;SDS011;60208;48.692;8.948;2023-03-01T17:13:49;28.42;;;17.95;;
72273;SDS011;60208;48.692;8.948;2023-03-01T17:16:20;26.13;;;18.23;;
72273;SDS011;60208;48.692;8.948;2023-03-01T17:18:46;29.33;;;17.45;;
72273;SDS011;60208;48.692;8.948;2023-03-01T17:21:15;23.83;;;17.75;;